Kofu, Japan
Current Conditions -  °F | °C
As of 9:58 PM on Friday 19 Dec 2014 (Local Time) from RJTY Reporting Station
Broken Clouds Broken Clouds  
Wind Chill: 34°   Ceiling: 20000
Heat Index: 34°   Visibility: 10mi
Dew Point: 24°   Wind: 0mph
Humidity: 68%   Direction: NA
Pressure: 30.44"   Gusts: NA
Location:  35.66°N, 138.57°E
Report Text: RJTY 191258Z AUTO 00000KT 10SM BKN200 01/M04 A3044 RMK AO2 SLP319 T00111042 FZRANO
Loading
Personal Weather Stations






























Interactive Weather Map New forecast layout! Learn more

10-Day Weather Forecast

Advertisements
Track Severe Weather on mobile